This is the latest recevied weather packets stored in our database for station/object AB8Y-13. If no packets are shown the sender has not sent any weather packets the latest 10 day(s).
| Time | Temp. | Humidity | Pressure | Rain* | Wind** | Luminosity | Snow |
|---|---|---|---|---|---|---|---|
| 1777742476 | 8.33° C | 41% | 1018 hPa | 0 mm | - | 470 W/m² | - |
| 1777742171 | 9.44° C | 39% | 1017.8 hPa | 0 mm | - | 339 W/m² | - |
| 1777741868 | 10° C | 39% | 1018 hPa | 0 mm | - | 1182 W/m² | - |
| 1777741565 | 10° C | 37% | 1018 hPa | 0 mm | - | 1169 W/m² | - |
| 1777741262 | 9.44° C | 39% | 1017.9 hPa | 0 mm | - | 1238 W/m² | - |
| 1777740959 | 10° C | 37% | 1018 hPa | 0 mm | - | 1107 W/m² | - |
| 1777740656 | 8.33° C | 42% | 1018.2 hPa | 0 mm | - | 1034 W/m² | - |
| 1777740352 | 8.33° C | 43% | 1018.3 hPa | 0 mm | - | 234 W/m² | - |
| 1777740049 | 9.44° C | 40% | 1018.2 hPa | 0 mm | - | 329 W/m² | - |
| 1777739745 | 8.33° C | 40% | 1018.3 hPa | 0 mm | - | 1073 W/m² | - |
| 1777739442 | 8.33° C | 45% | 1018.4 hPa | 0 mm | - | 240 W/m² | - |
| 1777739139 | 8.89° C | 44% | 1018.3 hPa | 0 mm | - | 257 W/m² | - |
| 1777738836 | 7.78° C | 49% | 1018.3 hPa | 0 mm | - | 1208 W/m² | - |
| 1777738532 | 7.78° C | 45% | 1018.4 hPa | 0 mm | - | 1179 W/m² | - |
| 1777738230 | 8.89° C | 42% | 1018.1 hPa | 0 mm | - | 288 W/m² | - |
| 1777737928 | 9.44° C | 42% | 1018.3 hPa | 0 mm | - | 1183 W/m² | - |
| 1777737626 | 8.33° C | 51% | 1018.2 hPa | 0 mm | - | 1133 W/m² | - |
| 1777737325 | 8.33° C | 45% | 1018.5 hPa | 0 mm | - | 378 W/m² | - |
| 1777737021 | 6.67° C | 47% | 1018.5 hPa | 0 mm | - | 911 W/m² | - |
| 1777736717 | 6.11° C | 54% | 1018.7 hPa | 0 mm | - | 318 W/m² | - |
| 1777736072 | 6.67° C | 52% | 1018.5 hPa | 0 mm | - | 234 W/m² | - |
| 1777735769 | 7.22° C | 49% | 1018.4 hPa | 0 mm | - | 176 W/m² | - |
| 1777735466 | 7.78° C | 43% | 1018.4 hPa | 0 mm | - | 253 W/m² | - |
| 1777735164 | 7.78° C | 45% | 1018.2 hPa | 0 mm | - | 326 W/m² | - |
| 1777734860 | 7.78° C | 41% | 1018.6 hPa | 0 mm | - | 604 W/m² | - |
* Rain latest hour (hover to see other rain measurements)
** Current wind speed in m/s (hover to see current wind gust speed)